Time;durP1;ratioP1;P1;durP2;ratioP2;P2;SDS_P1;SDS_P2;PMS_P1;PMS_P2;Temp;Humidity;BMP_temperature;BMP_pressure;BME280_temperature;BME280_humidity;BME280_pressure;Samples;Min_cycle;Max_cycle;Signal;HPM_P1;HPM_P2
2022/07/03 00:03:23;;;;;;;4.63;3.80;;;;;;;10.85;100.00;97078.53;10413018;28;20236;-55
2022/07/03 00:08:23;;;;;;;5.10;3.50;;;;;;;10.85;100.00;97078.53;10412894;28;20200;-54
2022/07/03 00:13:23;;;;;;;6.17;4.13;;;;;;;10.85;100.00;97082.97;10413061;28;20247;-51
2022/07/03 00:18:24;;;;;;;4.47;3.93;;;;;;;10.76;100.00;97082.06;10412680;28;20193;-52
2022/07/03 00:23:24;;;;;;;5.40;3.77;;;;;;;10.68;100.00;97079.38;10412699;28;20223;-51
2022/07/03 00:28:25;;;;;;;5.63;3.77;;;;;;;10.68;100.00;97071.50;10412712;28;20188;-51
2022/07/03 00:33:27;;;;;;;3.87;3.43;;;;;;;10.55;100.00;97068.41;10411524;28;20646;-53
2022/07/03 00:38:28;;;;;;;4.43;3.83;;;;;;;10.52;100.00;97061.66;10410972;28;20188;-53
2022/07/03 00:43:28;;;;;;;4.73;3.80;;;;;;;10.51;100.00;97065.28;10411699;28;20267;-52
2022/07/03 00:48:30;;;;;;;6.37;3.40;;;;;;;10.48;100.00;97060.31;10411873;28;20267;-51
2022/07/03 00:53:32;;;;;;;4.87;3.87;;;;;;;10.37;100.00;97069.22;10410759;28;20208;-54
2022/07/03 00:58:35;;;;;;;4.70;4.00;;;;;;;10.23;100.00;97056.56;10411408;28;20216;-57
2022/07/03 01:03:39;;;;;;;4.37;3.57;;;;;;;10.34;100.00;97059.03;10411363;28;20290;-54
2022/07/03 01:08:50;;;;;;;4.10;3.70;;;;;;;10.27;100.00;97045.66;10411432;28;20200;-50
2022/07/03 01:14:28;;;;;;;6.30;3.70;;;;;;;10.28;100.00;97028.97;10414622;28;20870;-54
2022/07/03 01:19:42;;;;;;;4.03;3.63;;;;;;;10.23;100.00;97030.38;10418466;28;20302;-51
2022/07/03 01:25:04;;;;;;;3.97;3.67;;;;;;;10.16;100.00;97012.63;10419417;28;20311;-59
2022/07/03 01:30:08;;;;;;;5.37;4.10;;;;;;;10.10;100.00;97012.41;10419140;28;20271;-56
2022/07/03 01:35:12;;;;;;;4.50;4.10;;;;;;;10.08;100.00;97019.59;10419153;28;20331;-57
2022/07/03 01:40:14;;;;;;;9.50;4.23;;;;;;;10.00;100.00;97008.03;10418935;28;20197;-54
2022/07/03 01:45:15;;;;;;;4.50;4.10;;;;;;;10.12;100.00;96994.75;10417706;28;20304;-53
2022/07/03 01:50:15;;;;;;;4.13;3.83;;;;;;;10.10;100.00;96997.50;10418575;28;20196;-50
2022/07/03 01:55:16;;;;;;;5.80;4.53;;;;;;;10.03;100.00;96985.16;10418378;28;20756;-50
2022/07/03 02:00:20;;;;;;;5.03;4.53;;;;;;;9.91;100.00;96974.91;10418517;28;20192;-51
2022/07/03 02:05:42;;;;;;;6.10;5.13;;;;;;;9.88;100.00;96979.59;10418066;28;20319;-52
2022/07/03 02:10:47;;;;;;;5.37;4.63;;;;;;;9.94;100.00;96976.41;10417919;28;20203;-55
2022/07/03 02:15:51;;;;;;;5.13;4.63;;;;;;;9.90;100.00;96969.81;10416397;28;20213;-54
2022/07/03 02:21:13;;;;;;;6.03;4.27;;;;;;;9.76;100.00;96973.72;10417544;28;20196;-51
2022/07/03 02:26:16;;;;;;;6.73;5.00;;;;;;;9.53;100.00;96965.44;10416958;28;20310;-52
2022/07/03 02:31:18;;;;;;;6.30;4.90;;;;;;;9.49;100.00;96970.09;10416770;28;20570;-51
2022/07/03 02:36:19;;;;;;;8.97;5.53;;;;;;;9.51;100.00;96968.19;10415338;28;20595;-52
2022/07/03 02:41:23;;;;;;;5.67;4.47;;;;;;;9.37;100.00;96968.63;10415606;28;20310;-52
2022/07/03 02:46:49;;;;;;;6.10;5.37;;;;;;;9.30;100.00;96967.59;10415195;28;20220;-56
2022/07/03 02:51:57;;;;;;;8.07;5.53;;;;;;;9.22;100.00;96973.50;10415219;28;20212;-52
2022/07/03 02:57:08;;;;;;;10.53;5.70;;;;;;;9.15;100.00;96969.81;10414740;28;20740;-55
2022/07/03 03:02:18;;;;;;;6.83;5.97;;;;;;;9.18;100.00;96959.06;10437827;22;20244;-56
2022/07/03 03:07:24;;;;;;;6.00;5.40;;;;;;;9.46;100.00;96962.56;10399006;28;20228;-55
2022/07/03 03:12:32;;;;;;;9.13;5.90;;;;;;;9.63;100.00;96960.97;10398019;28;20236;-60
2022/07/03 03:17:40;;;;;;;6.33;5.73;;;;;;;9.56;100.00;96958.13;10397390;28;20659;-59
2022/07/03 03:23:00;;;;;;;7.57;5.90;;;;;;;9.90;100.00;96960.16;10398323;28;20208;-58
2022/07/03 03:28:00;;;;;;;7.43;5.57;;;;;;;9.98;100.00;96959.41;10414872;28;20188;-58
2022/07/03 03:33:01;;;;;;;8.13;5.53;;;;;;;10.42;100.00;96943.88;10414501;28;20571;-59
2022/07/03 03:38:01;;;;;;;5.53;4.77;;;;;;;10.52;100.00;96946.41;10414021;28;20189;-57
2022/07/03 03:43:03;;;;;;;6.53;5.20;;;;;;;11.09;100.00;96950.44;10414071;28;20252;-60
2022/07/03 03:48:03;;;;;;;6.07;4.77;;;;;;;11.71;100.00;96943.22;10414192;28;20201;-57
2022/07/03 03:53:04;;;;;;;6.03;4.83;;;;;;;12.11;100.00;96933.91;10413867;28;20213;-59
2022/07/03 03:58:04;;;;;;;8.35;4.68;;;;;;;12.60;100.00;96924.44;10413792;28;20223;-60
2022/07/03 04:03:04;;;;;;;5.25;3.90;;;;;;;13.15;100.00;96918.47;10413070;28;20236;-55
2022/07/03 04:08:05;;;;;;;4.85;3.60;;;;;;;13.46;100.00;96919.56;10413370;28;20195;-56
2022/07/03 04:13:05;;;;;;;4.95;3.42;;;;;;;13.95;100.00;96911.47;10413294;28;20299;-61
2022/07/03 04:18:06;;;;;;;8.98;3.30;;;;;;;14.28;100.00;96904.19;10412938;28;20204;-58
2022/07/03 04:23:06;;;;;;;7.63;3.10;;;;;;;14.68;100.00;96908.53;10412830;28;20220;-59
2022/07/03 04:28:06;;;;;;;3.95;2.85;;;;;;;15.05;100.00;96896.34;10412727;28;20189;-61
2022/07/03 04:33:07;;;;;;;3.17;2.63;;;;;;;15.37;100.00;96891.72;10412006;28;20207;-60
2022/07/03 04:38:07;;;;;;;3.33;2.58;;;;;;;15.68;98.42;96887.06;10412398;28;20220;-60
2022/07/03 04:43:07;;;;;;;3.17;2.78;;;;;;;15.97;95.92;96885.41;10412022;28;20243;-62
2022/07/03 04:48:08;;;;;;;3.20;2.80;;;;;;;16.31;94.55;96883.91;10411277;28;20204;-62
2022/07/03 04:53:08;;;;;;;3.38;2.63;;;;;;;16.62;91.83;96882.78;10412144;28;20208;-62
2022/07/03 04:58:08;;;;;;;3.33;3.03;;;;;;;16.86;90.30;96873.63;10411554;28;20196;-59
2022/07/03 05:03:09;;;;;;;4.20;2.67;;;;;;;17.02;88.58;96866.41;10411741;28;20244;-62
2022/07/03 05:08:09;;;;;;;2.60;2.40;;;;;;;17.17;86.57;96853.88;10411287;28;20196;-61
2022/07/03 05:13:09;;;;;;;4.35;2.17;;;;;;;17.37;84.81;96856.63;10411586;28;20216;-62
2022/07/03 05:18:10;;;;;;;5.53;2.88;;;;;;;17.50;84.68;96852.41;10411452;28;20293;-62
2022/07/03 05:23:10;;;;;;;3.58;2.60;;;;;;;17.72;84.73;96853.94;10411120;28;20224;-61
2022/07/03 05:28:11;;;;;;;3.75;2.42;;;;;;;17.87;82.70;96850.31;10411380;28;20200;-62
2022/07/03 05:33:11;;;;;;;2.60;2.40;;;;;;;18.12;82.60;96842.66;10410367;28;20251;-62
2022/07/03 05:38:12;;;;;;;5.90;2.35;;;;;;;18.27;80.04;96823.91;10411114;28;20193;-62
2022/07/03 05:43:12;;;;;;;2.78;2.58;;;;;;;18.46;80.36;96840.88;10410782;28;20221;-62
2022/07/03 05:48:12;;;;;;;3.47;2.40;;;;;;;18.71;78.71;96823.31;10410767;28;20197;-61
2022/07/03 05:53:13;;;;;;;2.72;2.30;;;;;;;18.82;78.05;96847.59;10410857;28;20239;-63
2022/07/03 05:58:13;;;;;;;2.72;2.50;;;;;;;19.02;77.89;96850.25;10410690;28;20201;-63
2022/07/03 06:03:14;;;;;;;2.70;2.50;;;;;;;18.99;76.64;96829.44;10418196;28;20246;-63
2022/07/03 06:08:14;;;;;;;3.42;2.60;;;;;;;19.18;75.45;96838.38;10418059;28;20671;-62
2022/07/03 06:13:14;;;;;;;2.78;2.55;;;;;;;19.34;75.86;96842.41;10417948;28;20215;-62
2022/07/03 06:18:15;;;;;;;2.45;2.22;;;;;;;19.70;75.42;96841.09;10417775;28;20794;-62
2022/07/03 06:23:15;;;;;;;3.95;2.22;;;;;;;19.69;73.25;96812.84;10417275;28;20687;-62
2022/07/03 06:28:15;;;;;;;3.17;2.35;;;;;;;20.11;72.63;96815.94;10417385;28;20686;-62
2022/07/03 06:33:17;;;;;;;3.45;2.22;;;;;;;20.24;71.41;96794.53;10416593;28;20810;-62
2022/07/03 06:38:17;;;;;;;4.53;2.30;;;;;;;20.75;68.89;96757.31;10417020;28;20204;-62
2022/07/03 06:43:18;;;;;;;3.55;2.20;;;;;;;21.37;67.28;96744.72;10416754;28;20695;-62
2022/07/03 06:48:18;;;;;;;5.40;2.45;;;;;;;21.75;65.39;96723.34;10416556;28;20688;-62
2022/07/03 06:53:18;;;;;;;2.47;2.15;;;;;;;21.56;65.92;96736.72;10416405;28;20581;-62
2022/07/03 06:58:19;;;;;;;3.70;2.25;;;;;;;21.62;65.08;96722.47;10416214;28;20220;-62
2022/07/03 07:03:19;;;;;;;2.38;2.17;;;;;;;22.07;62.34;96673.19;10415642;28;20275;-63
2022/07/03 07:08:19;;;;;;;3.08;2.40;;;;;;;22.37;62.04;96699.78;10415904;28;20188;-61
2022/07/03 07:13:20;;;;;;;2.38;2.17;;;;;;;22.52;63.64;96738.56;10414579;28;20243;-62
2022/07/03 07:18:20;;;;;;;4.03;2.22;;;;;;;23.37;60.35;96686.41;10415472;28;20196;-62
2022/07/03 07:23:20;;;;;;;4.50;2.30;;;;;;;23.39;59.74;96683.50;10415050;28;20235;-62
2022/07/03 07:28:21;;;;;;;2.17;2.00;;;;;;;23.40;61.51;96727.88;10415274;28;20212;-63
2022/07/03 07:33:21;;;;;;;3.45;2.05;;;;;;;23.05;60.21;96688.69;10414460;28;20220;-62
2022/07/03 07:38:22;;;;;;;2.83;2.10;;;;;;;22.50;60.60;96698.75;10414354;28;20618;-60
2022/07/03 07:43:22;;;;;;;3.30;2.10;;;;;;;22.53;60.89;96708.97;10414461;28;20259;-60
2022/07/03 07:48:22;;;;;;;2.55;2.00;;;;;;;22.06;61.88;96711.59;10414031;28;20193;-58
2022/07/03 07:53:23;;;;;;;3.30;1.95;;;;;;;22.58;61.65;96718.94;10414030;28;20588;-59
2022/07/03 07:58:23;;;;;;;1.90;1.77;;;;;;;23.02;61.00;96713.19;10413838;28;20562;-61
2022/07/03 08:08:42;;;;;;;3.80;1.95;;;;;;;23.23;59.15;96685.88;10413379;28;20184;-61
2022/07/03 08:13:45;;;;;;;3.45;2.35;;;;;;;22.77;60.64;96704.44;10412920;28;20201;-60
2022/07/03 08:18:46;;;;;;;1.95;1.75;;;;;;;22.85;58.06;96643.66;10413181;28;20199;-59
2022/07/03 08:23:46;;;;;;;2.00;1.90;;;;;;;23.42;59.58;96702.53;10412528;28;20604;-61
2022/07/03 08:28:46;;;;;;;3.83;1.88;;;;;;;23.94;58.94;96714.19;10412859;28;20247;-60
2022/07/03 08:33:47;;;;;;;2.00;1.90;;;;;;;23.31;57.50;96649.94;10412138;28;20219;-59
2022/07/03 08:38:47;;;;;;;2.10;1.70;;;;;;;24.38;56.19;96652.75;10412422;28;20200;-62
2022/07/03 08:43:50;;;;;;;2.15;1.95;;;;;;;24.36;54.55;96604.81;10412222;28;20243;-60
2022/07/03 08:48:52;;;;;;;2.33;1.83;;;;;;;25.15;53.32;96602.00;10411951;28;20192;-61
2022/07/03 08:53:54;;;;;;;3.47;1.80;;;;;;;24.88;52.31;96573.28;10412039;28;20212;-61
2022/07/03 08:58:56;;;;;;;2.25;1.80;;;;;;;24.48;55.28;96644.03;10411774;28;20193;-60
2022/07/03 09:03:58;;;;;;;3.53;1.92;;;;;;;24.36;54.97;96641.47;10432372;22;20243;-59
2022/07/03 09:08:58;;;;;;;2.10;1.77;;;;;;;25.16;50.98;96560.72;10411495;28;20189;-58
2022/07/03 09:13:59;;;;;;;1.95;1.63;;;;;;;25.28;50.93;96558.66;10411104;28;20219;-57
2022/07/03 09:18:59;;;;;;;2.53;1.98;;;;;;;24.60;50.95;96545.66;10411497;28;20254;-60
2022/07/03 09:24:03;;;;;;;1.70;1.50;;;;;;;23.86;52.38;96579.75;10411199;28;20224;-61
2022/07/03 09:29:04;;;;;;;2.65;1.88;;;;;;;24.90;53.06;96619.41;10411540;28;20193;-61
2022/07/03 09:34:07;;;;;;;1.85;1.40;;;;;;;23.83;54.31;96623.00;10412545;28;20698;-62
2022/07/03 09:39:15;;;;;;;1.70;1.40;;;;;;;24.45;54.47;96656.03;10418991;28;20200;-60
2022/07/03 09:44:31;;;;;;;1.65;1.33;;;;;;;26.94;47.33;96534.41;10419028;28;20227;-62
2022/07/03 09:49:43;;;;;;;2.15;1.45;;;;;;;26.19;47.85;96530.13;10418704;28;20206;-62
2022/07/03 09:54:44;;;;;;;1.40;1.30;;;;;;;24.46;50.93;96545.22;10418890;28;20209;-61
2022/07/03 09:59:45;;;;;;;1.95;1.60;;;;;;;25.70;49.72;96549.13;10418155;28;20193;-62
2022/07/03 10:04:45;;;;;;;3.40;1.63;;;;;;;25.11;52.14;96588.28;10418148;28;20228;-61
2022/07/03 10:09:46;;;;;;;2.80;1.77;;;;;;;24.67;51.58;96570.41;10417931;28;20605;-61
2022/07/03 10:14:46;;;;;;;1.77;1.67;;;;;;;25.74;49.25;96534.94;10417873;28;20653;-61
2022/07/03 10:19:46;;;;;;;5.43;1.70;;;;;;;26.87;46.09;96489.00;10417790;28;20939;-61
2022/07/03 10:24:47;;;;;;;4.70;1.70;;;;;;;27.53;46.07;96509.75;10417361;28;20942;-60
2022/07/03 10:29:49;;;;;;;1.77;1.60;;;;;;;26.65;46.85;96498.06;10417620;28;20454;-60
2022/07/03 10:34:49;;;;;;;2.88;1.70;;;;;;;27.11;43.01;96422.06;10415486;28;20208;-58
2022/07/03 10:44:45;;;;;;;7.15;1.70;;;;;;;27.46;45.18;96487.69;10415766;28;20192;-58
2022/07/03 10:45:22;;;;;;;1.92;1.30;;;;;;;27.82;44.06;96457.22;10414179;28;20232;-56
2022/07/03 10:50:23;;;;;;;4.40;1.90;;;;;;;25.53;49.69;96558.13;10416607;28;20200;-59
2022/07/03 10:55:23;;;;;;;2.78;1.65;;;;;;;25.88;46.52;96484.31;10416352;28;20650;-59
2022/07/03 11:00:24;;;;;;;3.78;1.52;;;;;;;27.58;45.04;96492.78;10415860;28;20263;-59
2022/07/03 11:05:26;;;;;;;2.15;1.95;;;;;;;25.22;48.96;96514.94;10414545;28;20267;-59
2022/07/03 11:10:26;;;;;;;1.98;1.63;;;;;;;25.71;49.23;96532.78;10415680;28;20189;-58
2022/07/03 11:15:31;;;;;;;2.88;1.85;;;;;;;27.80;45.30;96486.31;10415613;28;20205;-61
2022/07/03 11:20:32;;;;;;;2.65;1.77;;;;;;;28.59;42.66;96429.97;10415374;28;20570;-61
2022/07/03 11:25:48;;;;;;;1.88;1.77;;;;;;;27.08;46.37;96497.88;10414957;28;20229;-61
2022/07/03 11:31:07;;;;;;;5.07;1.85;;;;;;;26.20;49.74;96549.72;10414617;28;20200;-60
2022/07/03 11:36:11;;;;;;;2.08;1.88;;;;;;;28.20;47.47;96547.34;10414387;28;20211;-60
2022/07/03 11:41:13;;;;;;;5.20;2.15;;;;;;;28.68;45.41;96511.06;10414893;28;20189;-61
2022/07/03 11:46:25;;;;;;;2.42;2.05;;;;;;;26.20;48.94;96514.81;10414401;28;20275;-61
2022/07/03 11:51:25;;;;;;;3.17;1.80;;;;;;;26.99;50.19;96583.66;10414429;28;20181;-61
2022/07/03 11:56:26;;;;;;;2.85;2.00;;;;;;;26.75;46.42;96453.50;10413388;28;20215;-60
2022/07/03 12:01:27;;;;;;;1.67;1.58;;;;;;;26.78;45.96;96436.84;10413859;28;20201;-60
2022/07/03 12:06:33;;;;;;;2.92;1.85;;;;;;;27.35;47.11;96511.13;10413126;28;20233;-60
2022/07/03 12:11:33;;;;;;;1.67;1.58;;;;;;;27.07;47.88;96498.97;10413492;28;20200;-61
2022/07/03 12:16:34;;;;;;;2.67;1.70;;;;;;;27.76;46.30;96484.16;10413056;28;20212;-59
2022/07/03 12:21:38;;;;;;;2.53;1.58;;;;;;;28.33;44.43;96459.75;10412913;28;20430;-60
2022/07/03 12:26:39;;;;;;;3.38;1.40;;;;;;;30.17;41.64;96429.63;10412693;28;20250;-60
2022/07/03 12:31:41;;;;;;;3.15;1.63;;;;;;;30.75;39.76;96398.00;10412479;28;20330;-61
2022/07/03 12:36:55;;;;;;;3.05;1.63;;;;;;;28.16;45.54;96472.75;10412326;28;20305;-60
2022/07/03 12:41:56;;;;;;;1.95;1.55;;;;;;;29.79;42.05;96420.63;10412405;28;20199;-60
2022/07/03 12:46:57;;;;;;;3.00;1.58;;;;;;;30.52;40.83;96400.53;10411807;28;20235;-61
2022/07/03 12:51:57;;;;;;;2.00;1.40;;;;;;;30.76;39.95;96380.69;10411025;28;20255;-61
2022/07/03 13:02:27;;;;;;;1.50;1.40;;;;;;;27.64;43.73;96369.78;10411849;28;20435;-55
2022/07/03 13:07:29;;;;;;;2.00;1.80;;;;;;;27.62;43.69;96370.06;10409442;28;20251;-59
2022/07/03 13:12:30;;;;;;;2.45;1.50;;;;;;;29.55;42.12;96396.31;10411077;28;20193;-59
2022/07/03 13:17:50;;;;;;;3.40;2.03;;;;;;;31.25;42.31;96454.34;10410852;28;20212;-60
2022/07/03 13:22:51;;;;;;;3.55;1.35;;;;;;;32.06;39.75;96385.41;10411313;28;20473;-61
2022/07/03 13:27:52;;;;;;;1.23;1.13;;;;;;;32.98;35.96;96301.94;10410827;28;20371;-60
2022/07/03 13:32:52;;;;;;;2.08;1.48;;;;;;;28.42;42.76;96323.38;10411041;28;20279;-59
2022/07/03 13:37:52;;;;;;;1.83;1.60;;;;;;;28.55;43.28;96378.50;10411887;28;20196;-60
2022/07/03 13:42:53;;;;;;;1.90;1.40;;;;;;;29.00;43.04;96381.97;10410717;28;20608;-61
2022/07/03 13:47:53;;;;;;;2.77;1.50;;;;;;;29.38;40.09;96305.78;10411656;28;20533;-60
2022/07/03 13:52:53;;;;;;;1.70;1.50;;;;;;;28.70;41.60;96323.72;10410819;28;20466;-57
2022/07/03 13:57:54;;;;;;;1.80;1.40;;;;;;;29.63;42.23;96390.25;10410950;28;20446;-59
2022/07/03 14:02:54;;;;;;;2.17;1.40;;;;;;;29.92;40.99;96354.31;10409265;28;20462;-62
2022/07/03 14:07:55;;;;;;;2.43;1.40;;;;;;;32.67;38.61;96367.81;10410670;28;20252;-62
2022/07/03 14:12:58;;;;;;;2.00;1.50;;;;;;;29.50;41.95;96351.28;10410787;28;20466;-59
2022/07/03 14:18:01;;;;;;;1.50;1.40;;;;;;;33.02;36.66;96319.19;10409052;28;20197;-60
2022/07/03 14:23:01;;;;;;;2.63;1.05;;;;;;;34.16;33.17;96256.25;10416557;28;20204;-60
2022/07/03 14:33:20;;;;;;;1.48;1.33;;;;;;;30.22;39.99;96312.56;10416700;28;20817;-58
2022/07/03 14:38:21;;;;;;;1.50;1.40;;;;;;;30.62;38.52;96277.09;10417260;28;20189;-59
2022/07/03 14:43:21;;;;;;;2.63;1.13;;;;;;;34.53;34.13;96297.50;10416569;28;20532;-55
2022/07/03 14:48:22;;;;;;;1.47;1.10;;;;;;;36.34;30.65;96247.16;10416809;28;20666;-58
2022/07/03 14:53:22;;;;;;;2.93;1.20;;;;;;;34.53;32.80;96222.13;10416791;28;20471;-59
2022/07/03 14:58:26;;;;;;;1.02;1.02;;;;;;;33.17;33.64;96206.72;10416311;28;20681;-59
2022/07/03 15:03:31;;;;;;;2.33;1.25;;;;;;;31.83;35.40;96214.66;10441026;22;20233;-62
2022/07/03 15:08:43;;;;;;;1.95;1.10;;;;;;;33.32;34.43;96243.47;10413186;28;20204;-60
2022/07/03 15:13:43;;;;;;;1.25;1.15;;;;;;;32.78;34.78;96221.09;10415702;28;20204;-59
2022/07/03 15:18:44;;;;;;;1.40;1.30;;;;;;;29.70;40.12;96280.81;10414086;28;20181;-60
2022/07/03 15:23:46;;;;;;;1.60;1.23;;;;;;;29.71;39.53;96273.56;10415370;28;20224;-61
2022/07/03 15:28:46;;;;;;;3.17;1.20;;;;;;;30.02;40.84;96319.06;10414934;28;20427;-61
2022/07/03 15:33:47;;;;;;;2.20;1.50;;;;;;;30.34;38.79;96261.56;10412143;28;20296;-59
2022/07/03 15:38:56;;;;;;;2.20;1.40;;;;;;;29.03;42.16;96312.34;10414630;28;20443;-61
2022/07/03 15:44:10;;;;;;;1.50;1.40;;;;;;;28.92;41.24;96288.19;10412987;28;20570;-61
2022/07/03 15:49:22;;;;;;;1.33;1.23;;;;;;;29.25;40.38;96264.13;10413112;28;20197;-59
2022/07/03 15:54:58;;;;;;;1.50;1.35;;;;;;;27.90;44.75;96341.69;10412655;28;20570;-61
2022/07/03 16:00:02;;;;;;;1.27;1.17;;;;;;;29.27;41.83;96323.19;10413680;28;20566;-59
2022/07/03 16:05:07;;;;;;;3.53;1.63;;;;;;;29.70;41.38;96304.34;10408011;28;20322;-61
2022/07/03 16:10:09;;;;;;;1.58;1.35;;;;;;;29.26;42.31;96316.19;10410641;28;20275;-60
2022/07/03 16:15:09;;;;;;;1.40;1.30;;;;;;;28.81;43.15;96311.75;10412761;28;20263;-61
2022/07/03 16:20:10;;;;;;;3.85;1.30;;;;;;;27.94;45.04;96336.56;10412025;28;20188;-60
2022/07/03 16:25:10;;;;;;;2.45;1.20;;;;;;;27.61;46.69;96375.72;10412131;28;20239;-59
2022/07/03 16:30:11;;;;;;;3.20;1.30;;;;;;;29.17;42.68;96319.50;10409773;28;20193;-58
2022/07/03 16:35:36;;;;;;;1.40;1.30;;;;;;;28.77;44.22;96339.56;10411292;28;20474;-60
2022/07/03 16:40:37;;;;;;;1.80;1.30;;;;;;;28.93;45.78;96388.75;10407298;28;20224;-60
2022/07/03 16:45:38;;;;;;;1.40;1.30;;;;;;;28.64;42.37;96281.72;10401346;28;20305;-60
2022/07/03 16:50:48;;;;;;;3.67;1.50;;;;;;;29.56;43.56;96350.13;10409999;28;20193;-58
2022/07/03 16:55:49;;;;;;;2.28;1.35;;;;;;;29.08;43.56;96325.78;10411795;28;20679;-60
2022/07/03 17:00:50;;;;;;;4.78;1.40;;;;;;;27.11;48.96;96389.78;10411940;28;20220;-59
2022/07/03 17:05:51;;;;;;;1.48;1.38;;;;;;;26.80;50.28;96415.88;10410525;28;20228;-60
2022/07/03 17:10:52;;;;;;;1.80;1.70;;;;;;;26.65;51.33;96438.94;10411712;28;20212;-59
2022/07/03 17:15:55;;;;;;;1.88;1.55;;;;;;;25.71;51.90;96428.13;10411014;28;20305;-59
2022/07/03 17:21:03;;;;;;;6.15;1.90;;;;;;;25.32;52.75;96441.84;10411345;28;20193;-61
2022/07/03 17:26:06;;;;;;;5.35;1.65;;;;;;;25.49;52.58;96443.56;10411596;28;20224;-59
2022/07/03 17:31:14;;;;;;;2.38;1.60;;;;;;;25.03;53.17;96447.47;10411141;28;20211;-60
2022/07/03 17:36:19;;;;;;;1.80;1.70;;;;;;;25.38;52.74;96438.13;10411078;28;20291;-60
2022/07/03 17:41:24;;;;;;;3.72;1.63;;;;;;;25.60;54.20;96480.09;10410973;28;20204;-60
2022/07/03 17:46:25;;;;;;;5.05;2.10;;;;;;;25.64;53.60;96462.44;10410971;28;20224;-61
2022/07/03 17:51:27;;;;;;;2.10;1.88;;;;;;;25.30;55.58;96484.19;10410654;28;20247;-58
2022/07/03 17:56:28;;;;;;;3.25;1.70;;;;;;;24.64;57.70;96517.31;10414783;28;20213;-60
2022/07/03 18:01:30;;;;;;;3.22;1.60;;;;;;;24.90;58.43;96537.16;10418831;28;20199;-61
2022/07/03 18:06:32;;;;;;;2.20;2.00;;;;;;;24.87;59.92;96548.38;10417626;28;20267;-59
2022/07/03 18:11:41;;;;;;;4.15;1.58;;;;;;;24.49;62.91;96600.16;10417365;28;20195;-61
2022/07/03 18:16:44;;;;;;;4.03;2.10;;;;;;;23.73;65.36;96605.97;10417741;28;20219;-61
2022/07/03 18:21:47;;;;;;;3.25;2.20;;;;;;;23.81;65.40;96595.69;10417957;28;20193;-60
2022/07/03 18:26:49;;;;;;;2.50;1.90;;;;;;;23.55;66.54;96585.63;10417770;28;20224;-59
2022/07/03 18:31:50;;;;;;;4.00;2.92;;;;;;;23.23;70.22;96605.69;10415972;28;20192;-61
2022/07/03 18:36:51;;;;;;;5.40;2.45;;;;;;;22.84;71.18;96596.63;10417123;28;20209;-58
2022/07/03 18:41:51;;;;;;;3.97;2.15;;;;;;;;;;10416864;28;20196;-58
2022/07/03 18:46:54;;;;;;;3.13;2.00;;;;;;;22.54;71.30;96576.28;10416775;28;20694;-60
2022/07/03 18:52:03;;;;;;;2.25;2.05;;;;;;;22.16;73.69;96601.59;10416540;28;20220;-60
2022/07/03 18:57:17;;;;;;;2.45;2.25;;;;;;;21.80;76.12;96600.81;10415066;28;20230;-59
2022/07/03 19:02:20;;;;;;;2.42;2.20;;;;;;;21.26;80.20;96598.13;10414902;28;20200;-60
2022/07/03 19:07:54;;;;;;;3.88;2.47;;;;;;;21.27;80.09;96587.25;10414172;28;20240;-57
2022/07/03 19:13:06;;;;;;;2.47;2.25;;;;;;;21.06;79.61;96582.41;10406439;28;20204;-59
2022/07/03 19:18:07;;;;;;;2.47;2.28;;;;;;;20.36;85.75;96600.44;10415537;28;20199;-59
2022/07/03 19:23:07;;;;;;;2.70;2.50;;;;;;;20.09;87.12;96586.59;10415345;28;20615;-60
2022/07/03 19:28:07;;;;;;;2.05;1.95;;;;;;;19.99;87.46;96583.66;10415160;28;20232;-56
2022/07/03 19:33:08;;;;;;;5.72;2.75;;;;;;;19.99;87.72;96588.97;10415107;28;20199;-59
2022/07/03 19:38:09;;;;;;;2.50;2.30;;;;;;;19.80;87.34;96586.28;10414462;28;20279;-59
2022/07/03 19:43:10;;;;;;;3.95;2.72;;;;;;;19.52;90.91;96590.13;10414687;28;20220;-59
2022/07/03 19:48:10;;;;;;;7.40;2.95;;;;;;;19.47;90.20;96584.66;10414202;28;20306;-58
2022/07/03 19:53:10;;;;;;;3.35;3.03;;;;;;;19.08;92.00;96591.84;10414294;28;20188;-56
2022/07/03 19:58:11;;;;;;;7.20;2.92;;;;;;;19.12;91.35;96589.59;10414008;28;20247;-56
2022/07/03 20:03:12;;;;;;;3.28;2.92;;;;;;;19.49;87.29;96577.28;10413614;28;20196;-58
2022/07/03 20:08:13;;;;;;;3.58;2.25;;;;;;;19.49;86.34;96579.94;10413018;28;20650;-56
2022/07/03 20:13:13;;;;;;;5.78;2.60;;;;;;;19.66;84.23;96572.22;10413368;28;20196;-54
2022/07/03 20:18:15;;;;;;;3.47;2.75;;;;;;;19.64;84.15;96573.50;10412823;28;20215;-53
2022/07/03 20:23:16;;;;;;;3.10;2.72;;;;;;;19.58;83.67;96567.19;10413289;28;20235;-54
2022/07/03 20:28:16;;;;;;;5.43;2.88;;;;;;;19.48;84.00;96573.00;10412665;28;20756;-55
2022/07/03 20:33:16;;;;;;;2.72;2.47;;;;;;;19.61;82.77;96556.94;10411833;28;20192;-54
2022/07/03 20:38:17;;;;;;;2.50;2.30;;;;;;;19.67;82.39;96563.25;10412349;28;20212;-54
2022/07/03 20:43:17;;;;;;;3.13;2.30;;;;;;;19.53;82.99;96575.81;10412470;28;20203;-54
2022/07/03 20:48:18;;;;;;;2.83;2.45;;;;;;;19.49;82.68;96569.31;10412314;28;20224;-55
2022/07/03 20:53:18;;;;;;;3.17;2.88;;;;;;;19.43;83.05;96573.66;10412072;28;20192;-55
2022/07/03 20:58:19;;;;;;;2.90;2.70;;;;;;;19.45;82.88;96568.13;10412136;28;20236;-59
2022/07/03 21:03:19;;;;;;;5.38;3.22;;;;;;;19.34;83.13;96579.44;10411358;28;20188;-59
2022/07/03 21:08:25;;;;;;;3.10;2.67;;;;;;;19.27;83.39;96571.53;10441227;23;20734;-57
2022/07/03 21:13:26;;;;;;;5.50;3.00;;;;;;;19.51;81.43;96561.13;10411759;28;20283;-58
2022/07/03 21:18:26;;;;;;;2.88;2.67;;;;;;;19.62;80.30;96549.81;10411156;28;20299;-54
2022/07/03 21:23:26;;;;;;;3.58;2.55;;;;;;;19.28;82.06;96564.38;10411493;28;20197;-53
2022/07/03 21:28:27;;;;;;;4.10;2.80;;;;;;;19.37;81.25;96558.59;10410849;28;20234;-55
2022/07/03 21:33:28;;;;;;;5.95;2.58;;;;;;;19.12;83.04;96571.03;10418848;28;20197;-51
2022/07/03 21:38:28;;;;;;;3.83;2.78;;;;;;;19.11;82.69;96566.72;10419232;28;20220;-51
2022/07/03 21:43:28;;;;;;;4.13;2.40;;;;;;;18.91;84.00;96574.81;10419191;28;20211;-51
2022/07/03 21:48:29;;;;;;;3.70;2.90;;;;;;;18.84;84.34;96572.19;10419368;28;20701;-51
2022/07/03 21:53:29;;;;;;;3.47;2.72;;;;;;;18.71;85.05;96568.56;10418585;28;20254;-54
2022/07/03 21:58:30;;;;;;;3.67;2.83;;;;;;;18.44;86.90;96583.78;10418781;28;20239;-52
2022/07/03 22:03:30;;;;;;;2.95;2.70;;;;;;;18.53;86.54;96573.75;10418156;28;20504;-56
2022/07/03 22:08:31;;;;;;;4.40;2.97;;;;;;;18.68;85.32;96563.69;10418240;28;20331;-52
2022/07/03 22:13:31;;;;;;;2.90;2.60;;;;;;;18.76;84.60;96552.00;10418518;28;20230;-54
2022/07/03 22:18:31;;;;;;;4.53;2.65;;;;;;;18.66;85.02;96567.56;10417511;28;20447;-53
2022/07/03 22:23:32;;;;;;;3.80;3.05;;;;;;;18.70;84.73;96566.13;10417973;28;20228;-51
2022/07/03 22:28:32;;;;;;;6.78;2.90;;;;;;;18.50;86.17;96579.47;10417233;28;20221;-51
2022/07/03 22:33:32;;;;;;;3.80;2.65;;;;;;;18.66;84.37;96564.91;10417502;28;20203;-53
2022/07/03 22:38:33;;;;;;;7.00;3.00;;;;;;;18.46;85.41;96565.81;10417105;28;20322;-51
2022/07/03 22:43:33;;;;;;;3.05;2.75;;;;;;;18.49;85.56;96560.06;10416846;28;20192;-51
2022/07/03 22:48:33;;;;;;;3.05;2.70;;;;;;;18.41;85.96;96559.47;10416913;28;20217;-51
2022/07/03 22:53:34;;;;;;;9.05;2.85;;;;;;;18.31;86.81;96574.00;10416452;28;20220;-51
2022/07/03 22:58:34;;;;;;;4.95;3.03;;;;;;;18.16;88.01;96579.56;10416524;28;20220;-51
2022/07/03 23:03:34;;;;;;;4.30;2.85;;;;;;;18.22;87.53;96577.09;10415956;28;20192;-53
2022/07/03 23:08:35;;;;;;;2.83;2.47;;;;;;;18.15;87.80;96577.94;10415712;28;20290;-51
2022/07/03 23:13:35;;;;;;;3.72;2.60;;;;;;;18.11;88.13;96579.38;10415857;28;20193;-51
2022/07/03 23:18:36;;;;;;;3.22;2.83;;;;;;;18.12;88.10;96565.09;10415401;28;20216;-51
2022/07/03 23:23:36;;;;;;;3.22;2.92;;;;;;;18.15;87.80;96572.63;10415398;28;20257;-51
2022/07/03 23:28:36;;;;;;;4.47;2.70;;;;;;;18.14;87.46;96571.00;10415132;28;20212;-51
2022/07/03 23:33:37;;;;;;;3.33;2.97;;;;;;;17.98;88.46;96580.22;10415039;28;20219;-51
2022/07/03 23:38:37;;;;;;;3.78;2.78;;;;;;;18.18;86.87;96566.91;10414753;28;20197;-51
2022/07/03 23:43:37;;;;;;;3.53;2.83;;;;;;;18.35;84.99;96558.50;10414636;28;20195;-54